Time;durP1;ratioP1;P1;durP2;ratioP2;P2;SDS_P1;SDS_P2;PMS_P1;PMS_P2;Temp;Humidity;BMP_temperature;BMP_pressure;BME280_temperature;BME280_humidity;BME280_pressure;Samples;Min_cycle;Max_cycle;Signal;HPM_P1;HPM_P2
2022/07/28 00:01:04;;;;;;;5.90;1.55;;;16.60;99.90;;;;;;4994272;28;20202;-67
2022/07/28 00:03:29;;;;;;;4.18;1.48;;;16.60;99.90;;;;;;4994372;28;20304;-67
2022/07/28 00:05:55;;;;;;;5.15;1.40;;;16.60;99.90;;;;;;4994280;28;20669;-66
2022/07/28 00:08:20;;;;;;;4.13;1.17;;;16.60;99.90;;;;;;4994214;28;20894;-67
2022/07/28 00:10:46;;;;;;;4.00;1.48;;;16.60;99.90;;;;;;4994121;28;20741;-67
2022/07/28 00:13:12;;;;;;;6.75;1.70;;;16.60;99.90;;;;;;4993976;28;20227;-67
2022/07/28 00:15:37;;;;;;;4.43;1.35;;;16.50;99.90;;;;;;4993821;28;20224;-69
2022/07/28 00:18:03;;;;;;;4.43;1.90;;;16.50;99.90;;;;;;4993630;28;20229;-66
2022/07/28 00:20:29;;;;;;;4.10;1.65;;;16.50;99.90;;;;;;4994226;28;20166;-67
2022/07/28 00:22:55;;;;;;;4.43;1.40;;;16.50;99.90;;;;;;4993970;28;20202;-66
2022/07/28 00:25:21;;;;;;;5.10;1.48;;;16.40;99.90;;;;;;4995828;28;20209;-66
2022/07/28 00:27:47;;;;;;;5.97;1.60;;;16.30;99.90;;;;;;4993696;28;20303;-67
2022/07/28 00:30:12;;;;;;;5.40;1.80;;;16.30;99.90;;;;;;4993500;28;20241;-69
2022/07/28 00:32:38;;;;;;;5.05;1.60;;;16.20;99.90;;;;;;4994122;28;20209;-71
2022/07/28 00:35:05;;;;;;;6.10;1.55;;;16.10;99.90;;;;;;4993728;28;20741;-68
2022/07/28 00:37:31;;;;;;;3.70;1.55;;;16.10;99.90;;;;;;4993615;28;20260;-68
2022/07/28 00:39:56;;;;;;;3.25;1.33;;;16.10;99.90;;;;;;4993332;28;20206;-68
2022/07/28 00:42:22;;;;;;;5.97;1.88;;;16.10;99.90;;;;;;4993399;28;20651;-68
2022/07/28 00:44:47;;;;;;;3.95;1.25;;;16.10;99.90;;;;;;4993528;28;20174;-69
2022/07/28 00:47:13;;;;;;;4.72;1.63;;;16.00;99.90;;;;;;4993897;28;20605;-68
2022/07/28 00:49:39;;;;;;;6.30;1.98;;;16.00;99.90;;;;;;4993044;28;20698;-68
2022/07/28 00:52:07;;;;;;;3.38;1.35;;;15.90;99.90;;;;;;4993383;28;20256;-68
2022/07/28 00:54:33;;;;;;;2.55;1.58;;;15.90;99.90;;;;;;4975799;28;20296;-68
2022/07/28 00:56:59;;;;;;;6.50;1.45;;;15.80;99.90;;;;;;4993472;28;20221;-68
2022/07/28 00:59:24;;;;;;;4.80;1.90;;;15.80;99.90;;;;;;4993171;28;20205;-68
2022/07/28 01:01:51;;;;;;;6.35;1.50;;;15.80;99.90;;;;;;4993317;28;20202;-68
2022/07/28 01:04:17;;;;;;;2.80;1.35;;;15.80;99.90;;;;;;4989599;28;20713;-68
2022/07/28 01:07:06;;;;;;;4.00;1.20;;;15.80;99.90;;;;;;4992913;28;20210;-68
2022/07/28 01:09:40;;;;;;;4.85;1.45;;;15.70;99.90;;;;;;4990814;28;20221;-68
2022/07/28 01:12:47;;;;;;;3.33;1.63;;;15.60;99.90;;;;;;4992959;28;20221;-68
2022/07/28 01:15:23;;;;;;;5.32;1.55;;;15.60;99.90;;;;;;4989863;28;20217;-68
2022/07/28 01:18:16;;;;;;;6.10;1.77;;;15.70;99.90;;;;;;4992769;28;20208;-68
2022/07/28 01:20:53;;;;;;;4.38;1.70;;;15.60;99.90;;;;;;4992717;28;20181;-68
2022/07/28 01:23:33;;;;;;;7.10;1.80;;;15.60;99.90;;;;;;4971478;28;20202;-68
2022/07/28 01:26:23;;;;;;;4.00;1.60;;;15.60;99.90;;;;;;4975365;28;20206;-68
2022/07/28 01:29:37;;;;;;;2.97;1.27;;;15.60;99.90;;;;;;4971636;28;20234;-68
2022/07/28 01:32:07;;;;;;;4.70;1.75;;;15.60;99.90;;;;;;4963169;28;20229;-68
2022/07/28 01:34:44;;;;;;;5.13;1.85;;;15.60;99.90;;;;;;4971386;28;20210;-68
2022/07/28 01:37:16;;;;;;;7.18;1.60;;;15.50;99.90;;;;;;4973132;28;20725;-68
2022/07/28 01:39:43;;;;;;;4.10;2.03;;;15.50;99.90;;;;;;4979201;28;20350;-68
2022/07/28 01:42:12;;;;;;;2.67;1.30;;;15.50;99.90;;;;;;4971818;28;20585;-68
2022/07/28 01:44:43;;;;;;;7.75;1.90;;;15.50;99.90;;;;;;4973173;28;20186;-68
2022/07/28 01:47:10;;;;;;;2.83;1.52;;;15.40;99.90;;;;;;5012164;28;20221;-68
2022/07/28 01:49:37;;;;;;;4.35;1.60;;;15.40;99.90;;;;;;5011340;28;20217;-69
2022/07/28 01:52:06;;;;;;;5.45;1.73;;;15.40;99.90;;;;;;5011903;28;20291;-68
2022/07/28 01:54:36;;;;;;;3.55;1.42;;;15.30;99.90;;;;;;5011653;28;20223;-68
2022/07/28 01:57:03;;;;;;;5.10;1.90;;;15.30;99.90;;;;;;5011938;28;20208;-68
2022/07/28 01:59:29;;;;;;;4.75;1.98;;;15.30;99.90;;;;;;5011790;28;20195;-68
2022/07/28 02:01:57;;;;;;;4.45;1.60;;;15.40;99.90;;;;;;5006595;28;20201;-68
2022/07/28 02:04:25;;;;;;;5.05;1.60;;;15.30;99.90;;;;;;5011515;28;20212;-68
2022/07/28 02:06:54;;;;;;;6.47;1.80;;;15.30;99.90;;;;;;5011607;28;20259;-68
2022/07/28 02:09:21;;;;;;;5.93;1.50;;;15.30;99.90;;;;;;4993758;28;20220;-69
2022/07/28 02:11:51;;;;;;;6.72;1.73;;;15.30;99.90;;;;;;5011382;28;20181;-68
2022/07/28 02:14:25;;;;;;;4.68;1.65;;;15.30;99.90;;;;;;5012046;28;20265;-67
2022/07/28 02:16:56;;;;;;;3.88;1.80;;;15.20;99.90;;;;;;5009571;28;21564;-68
2022/07/28 02:19:22;;;;;;;5.68;1.70;;;15.20;99.90;;;;;;5010285;28;20220;-67
2022/07/28 02:21:50;;;;;;;6.72;1.70;;;15.20;99.90;;;;;;5011454;28;20201;-68
2022/07/28 02:24:19;;;;;;;6.72;1.83;;;15.20;99.90;;;;;;5011293;28;20209;-68
2022/07/28 02:26:56;;;;;;;3.38;1.70;;;15.20;99.90;;;;;;5011831;28;20197;-68
2022/07/28 02:29:23;;;;;;;5.95;2.03;;;15.20;99.90;;;;;;5011059;28;20208;-67
2022/07/28 02:31:56;;;;;;;6.03;2.08;;;15.10;99.90;;;;;;5010934;28;20209;-68
2022/07/28 02:34:23;;;;;;;6.22;1.27;;;15.10;99.90;;;;;;5010857;28;20208;-67
2022/07/28 02:37:01;;;;;;;2.95;1.38;;;15.10;99.90;;;;;;5011046;28;20228;-68
2022/07/28 02:39:40;;;;;;;3.50;1.77;;;15.10;99.90;;;;;;5010303;28;20683;-69
2022/07/28 02:42:14;;;;;;;2.97;1.63;;;15.10;99.90;;;;;;5007586;28;20270;-67
2022/07/28 02:44:43;;;;;;;7.68;2.25;;;15.00;99.90;;;;;;5001691;28;20232;-68
2022/07/28 02:47:14;;;;;;;4.63;1.92;;;15.00;99.90;;;;;;5007993;28;20212;-67
2022/07/28 02:49:42;;;;;;;6.10;2.00;;;15.00;99.90;;;;;;5006674;28;20245;-67
2022/07/28 02:52:10;;;;;;;7.50;2.13;;;15.00;99.90;;;;;;5010450;28;20662;-68
2022/07/28 02:54:36;;;;;;;4.95;2.00;;;15.00;99.90;;;;;;5010037;28;20224;-68
2022/07/28 02:57:05;;;;;;;4.82;1.90;;;15.00;99.90;;;;;;5010001;28;20204;-68
2022/07/28 02:59:31;;;;;;;4.75;1.73;;;15.00;99.90;;;;;;5010439;28;20180;-68
2022/07/28 03:01:57;;;;;;;7.32;1.85;;;15.00;99.90;;;;;;5009889;28;20204;-68
2022/07/28 03:07:08;;;;;;;3.50;1.90;;;14.90;99.90;;;;;;5006447;28;20351;-68
2022/07/28 03:09:42;;;;;;;7.88;2.25;;;14.90;99.90;;;;;;5009571;28;20239;-68
2022/07/28 03:12:08;;;;;;;3.88;1.90;;;14.90;99.90;;;;;;5009893;28;20212;-68
2022/07/28 03:14:34;;;;;;;3.70;1.90;;;14.90;99.90;;;;;;5010178;28;20177;-69
2022/07/28 03:17:00;;;;;;;5.03;2.03;;;14.90;99.90;;;;;;5009800;28;20217;-68
2022/07/28 03:19:25;;;;;;;5.15;1.90;;;14.90;99.90;;;;;;5009346;28;20213;-68
2022/07/28 03:21:52;;;;;;;3.85;1.85;;;14.90;99.90;;;;;;5009880;28;20211;-67
2022/07/28 03:24:23;;;;;;;6.47;2.30;;;14.90;99.90;;;;;;4992375;28;20223;-68
2022/07/28 03:27:27;;;;;;;4.90;1.73;;;14.90;99.90;;;;;;5012172;28;20197;-68
2022/07/28 03:30:01;;;;;;;4.70;2.00;;;15.00;99.90;;;;;;4999930;28;20732;-68
2022/07/28 03:32:29;;;;;;;6.80;1.90;;;15.00;99.90;;;;;;5013973;28;20544;-68
2022/07/28 03:34:55;;;;;;;2.72;2.00;;;15.00;99.90;;;;;;5013944;28;20288;-67
2022/07/28 03:37:27;;;;;;;3.63;2.13;;;15.00;99.90;;;;;;5013664;28;20281;-68
2022/07/28 03:39:56;;;;;;;2.65;2.08;;;15.10;99.90;;;;;;5013878;28;20209;-67
2022/07/28 03:42:24;;;;;;;6.55;2.00;;;15.10;99.90;;;;;;5013332;28;20590;-67
2022/07/28 03:44:50;;;;;;;6.13;1.92;;;15.10;99.90;;;;;;5014087;28;20180;-68
2022/07/28 03:47:21;;;;;;;5.35;1.83;;;15.20;99.90;;;;;;5013852;28;20205;-67
2022/07/28 03:49:47;;;;;;;6.80;2.15;;;15.20;99.90;;;;;;5010265;28;20220;-68
2022/07/28 03:52:12;;;;;;;5.38;2.03;;;15.30;99.90;;;;;;5013411;28;20279;-68
2022/07/28 03:54:38;;;;;;;4.80;1.70;;;15.50;99.90;;;;;;5004228;28;20230;-67
2022/07/28 03:57:03;;;;;;;7.63;1.85;;;15.80;99.90;;;;;;5013191;28;20209;-67
2022/07/28 03:59:29;;;;;;;3.80;2.05;;;16.00;99.90;;;;;;5014435;28;20201;-67
2022/07/28 04:01:55;;;;;;;5.57;1.90;;;16.00;99.90;;;;;;5013069;28;20212;-67
2022/07/28 04:04:22;;;;;;;5.28;2.08;;;16.40;99.90;;;;;;5012545;28;20634;-68
2022/07/28 04:06:47;;;;;;;5.45;2.15;;;17.40;99.90;;;;;;5012598;28;20213;-67
2022/07/28 04:09:14;;;;;;;4.72;1.80;;;18.30;99.90;;;;;;5012497;28;20239;-68
2022/07/28 04:11:40;;;;;;;5.97;2.00;;;19.90;99.90;;;;;;5013311;28;20770;-68
2022/07/28 04:14:06;;;;;;;3.10;1.75;;;21.20;99.90;;;;;;5013140;28;20295;-68
2022/07/28 04:16:31;;;;;;;7.00;1.77;;;21.90;99.90;;;;;;5012609;28;20237;-68
2022/07/28 04:18:57;;;;;;;7.15;2.10;;;22.50;99.90;;;;;;4994493;28;20629;-67
2022/07/28 04:21:22;;;;;;;6.22;1.70;;;22.80;99.90;;;;;;5012781;28;20220;-67
2022/07/28 04:23:48;;;;;;;6.70;1.98;;;23.40;99.90;;;;;;5014430;28;20173;-68
2022/07/28 04:26:16;;;;;;;3.28;2.05;;;23.90;99.90;;;;;;5015841;28;20657;-68
2022/07/28 04:28:42;;;;;;;2.13;1.58;;;24.20;99.90;;;;;;5012505;28;20717;-68
2022/07/28 04:31:07;;;;;;;5.57;2.25;;;24.60;99.90;;;;;;5013393;28;20205;-68
2022/07/28 04:33:33;;;;;;;2.67;1.60;;;25.30;99.90;;;;;;5012722;28;20776;-67
2022/07/28 04:36:00;;;;;;;3.63;1.83;;;25.60;99.90;;;;;;5013033;28;20631;-68
2022/07/28 04:38:26;;;;;;;4.43;2.53;;;25.80;99.90;;;;;;5012771;28;20189;-68
2022/07/28 04:40:51;;;;;;;5.10;2.20;;;26.00;99.90;;;;;;5012763;28;20219;-68
2022/07/28 04:43:17;;;;;;;4.13;2.20;;;26.00;99.90;;;;;;5011900;28;20209;-68
2022/07/28 04:45:45;;;;;;;5.38;1.73;;;25.00;99.90;;;;;;5012686;28;20252;-67
2022/07/28 04:48:11;;;;;;;5.95;2.42;;;24.50;99.90;;;;;;5009529;28;20229;-68
2022/07/28 04:50:39;;;;;;;7.10;2.03;;;25.70;99.90;;;;;;4994315;28;20248;-68
2022/07/28 04:53:05;;;;;;;4.97;1.98;;;26.40;99.90;;;;;;5012643;28;20208;-69
2022/07/28 04:55:31;;;;;;;6.53;2.50;;;27.00;99.90;;;;;;5012101;28;20300;-68
2022/07/28 04:57:56;;;;;;;7.88;2.47;;;27.80;99.90;;;;;;5012187;28;20239;-68
2022/07/28 05:00:22;;;;;;;4.40;2.67;;;28.10;99.90;;;;;;5012002;28;20217;-68
2022/07/28 05:02:48;;;;;;;4.05;1.85;;;28.30;99.90;;;;;;5012090;28;20236;-68
2022/07/28 05:05:13;;;;;;;3.97;1.75;;;28.60;99.90;;;;;;5011539;28;20260;-68
2022/07/28 05:07:40;;;;;;;5.18;2.05;;;28.80;99.90;;;;;;5011844;28;20728;-68
2022/07/28 05:10:07;;;;;;;4.57;1.92;;;29.20;99.70;;;;;;5012016;28;20213;-69
2022/07/28 05:12:33;;;;;;;5.00;2.58;;;29.30;98.90;;;;;;5011697;28;20204;-69
2022/07/28 05:14:58;;;;;;;4.30;1.40;;;29.30;98.70;;;;;;5012105;28;20205;-68
2022/07/28 05:17:24;;;;;;;4.50;1.98;;;29.20;97.70;;;;;;5012077;28;20208;-69
2022/07/28 05:19:50;;;;;;;4.50;2.22;;;29.40;97.70;;;;;;5011869;28;20215;-67
2022/07/28 05:22:16;;;;;;;5.78;2.22;;;29.60;96.90;;;;;;5012061;28;20271;-67
2022/07/28 05:24:42;;;;;;;5.28;1.60;;;29.80;96.30;;;;;;5011669;28;20212;-67
2022/07/28 05:27:07;;;;;;;4.10;2.28;;;30.20;95.60;;;;;;4996703;28;20223;-68
2022/07/28 05:29:37;;;;;;;2.78;1.30;;;30.30;94.90;;;;;;5011484;28;20205;-67
2022/07/28 05:32:03;;;;;;;6.20;2.00;;;30.20;94.10;;;;;;5011726;28;20295;-67
2022/07/28 05:34:30;;;;;;;3.75;1.65;;;30.20;94.00;;;;;;5011559;28;20710;-66
2022/07/28 05:36:55;;;;;;;6.78;2.25;;;30.40;94.00;;;;;;5011463;28;20208;-66
2022/07/28 05:39:21;;;;;;;4.97;3.03;;;30.30;93.60;;;;;;5011090;28;20741;-65
2022/07/28 05:41:46;;;;;;;5.07;1.95;;;30.30;93.30;;;;;;5011545;28;20172;-66
2022/07/28 05:44:12;;;;;;;5.45;2.92;;;30.30;93.30;;;;;;5011792;28;20172;-66
2022/07/28 05:46:37;;;;;;;6.43;2.92;;;30.40;93.10;;;;;;5011094;28;20303;-66
2022/07/28 05:49:04;;;;;;;9.30;6.70;;;30.80;92.30;;;;;;5011119;28;20228;-67
2022/07/28 05:51:29;;;;;;;8.00;4.78;;;30.70;91.80;;;;;;4991639;28;20213;-66
2022/07/28 05:53:55;;;;;;;6.60;3.45;;;30.40;91.90;;;;;;5010636;28;20182;-65
2022/07/28 05:56:21;;;;;;;4.55;1.85;;;30.30;92.00;;;;;;5011372;28;20374;-67
2022/07/28 05:58:47;;;;;;;3.72;1.77;;;30.00;91.80;;;;;;4993020;28;20744;-66
2022/07/28 06:01:13;;;;;;;3.00;1.90;;;29.70;92.20;;;;;;5011094;28;20204;-66
2022/07/28 06:03:38;;;;;;;5.13;1.85;;;29.90;92.00;;;;;;5010981;28;20611;-66
2022/07/28 06:06:04;;;;;;;7.43;2.15;;;29.90;91.20;;;;;;5011065;28;20212;-67
2022/07/28 06:08:31;;;;;;;3.88;1.60;;;30.30;90.90;;;;;;5010743;28;20262;-66
2022/07/28 06:11:10;;;;;;;3.67;2.10;;;30.50;90.30;;;;;;5010998;28;20211;-66
2022/07/28 06:13:36;;;;;;;3.33;1.70;;;30.90;90.00;;;;;;5010768;28;20223;-67
2022/07/28 06:16:04;;;;;;;5.18;1.60;;;30.70;89.00;;;;;;5010989;28;20201;-66
2022/07/28 06:18:30;;;;;;;4.45;1.88;;;30.50;88.40;;;;;;5007705;28;20286;-66
2022/07/28 06:20:55;;;;;;;3.00;1.58;;;30.40;88.00;;;;;;5010907;28;20177;-66
2022/07/28 06:23:23;;;;;;;4.07;1.52;;;31.00;86.80;;;;;;5011112;28;20671;-66
2022/07/28 06:25:49;;;;;;;6.30;1.70;;;31.10;84.50;;;;;;5013069;28;20283;-66
2022/07/28 06:28:17;;;;;;;3.22;1.52;;;31.10;83.70;;;;;;5010343;28;20307;-66
2022/07/28 06:30:43;;;;;;;7.00;1.98;;;31.40;82.10;;;;;;5010196;28;20239;-65
2022/07/28 06:33:09;;;;;;;3.42;1.58;;;31.50;82.10;;;;;;4993124;28;20287;-66
2022/07/28 06:35:35;;;;;;;4.13;1.70;;;31.50;82.40;;;;;;5010864;28;20609;-67
2022/07/28 06:38:00;;;;;;;2.42;1.42;;;31.40;81.20;;;;;;5010313;28;20218;-67
2022/07/28 06:40:26;;;;;;;3.80;1.90;;;31.80;81.30;;;;;;5009954;28;20239;-66
2022/07/28 06:42:51;;;;;;;10.40;2.50;;;31.80;80.40;;;;;;5010145;28;20234;-66
2022/07/28 06:45:18;;;;;;;26.02;4.35;;;32.00;79.70;;;;;;5010561;28;20626;-66
2022/07/28 06:47:43;;;;;;;60.33;9.90;;;32.00;79.10;;;;;;4999996;28;20255;-65
2022/07/28 06:50:10;;;;;;;27.25;4.80;;;31.70;79.00;;;;;;5010674;28;20673;-66
2022/07/28 06:52:36;;;;;;;7.55;2.30;;;31.20;79.70;;;;;;5009893;28;20209;-66
2022/07/28 06:55:05;;;;;;;2.60;1.40;;;31.10;79.20;;;;;;5010196;28;20204;-67
2022/07/28 06:57:32;;;;;;;5.47;2.42;;;30.70;80.10;;;;;;5010176;28;20274;-65
2022/07/28 06:59:58;;;;;;;5.53;1.80;;;30.40;81.70;;;;;;5010025;28;20181;-66
2022/07/28 07:02:24;;;;;;;4.22;1.83;;;30.20;81.90;;;;;;5007604;28;20537;-67
2022/07/28 07:04:50;;;;;;;5.70;2.05;;;29.80;81.90;;;;;;5009905;28;20212;-66
2022/07/28 07:07:16;;;;;;;5.07;1.77;;;29.00;83.50;;;;;;5009514;28;20228;-66
2022/07/28 07:09:42;;;;;;;7.63;1.67;;;28.90;84.80;;;;;;5009281;28;20716;-67
2022/07/28 07:12:08;;;;;;;4.15;1.80;;;29.30;85.20;;;;;;5010085;28;20224;-67
2022/07/28 07:14:34;;;;;;;3.35;1.58;;;30.00;84.00;;;;;;5010492;28;20634;-67
2022/07/28 07:17:00;;;;;;;6.90;1.80;;;30.00;82.60;;;;;;5009791;28;20211;-67
2022/07/28 07:19:25;;;;;;;4.57;1.50;;;30.30;82.20;;;;;;5009468;28;20751;-67
2022/07/28 07:21:51;;;;;;;4.68;1.60;;;30.60;81.50;;;;;;5009966;28;20204;-67
2022/07/28 07:24:17;;;;;;;4.07;1.60;;;31.20;80.70;;;;;;5009822;28;20224;-67
2022/07/28 07:26:42;;;;;;;5.75;2.30;;;30.70;80.30;;;;;;5012038;28;20713;-67
2022/07/28 07:29:09;;;;;;;3.75;1.60;;;30.70;81.00;;;;;;5010149;28;20263;-67
2022/07/28 07:31:36;;;;;;;3.40;1.83;;;31.50;80.30;;;;;;5009845;28;20215;-67
2022/07/28 07:34:01;;;;;;;4.80;2.38;;;31.70;79.00;;;;;;5010040;28;20201;-67
2022/07/28 07:36:27;;;;;;;6.10;1.88;;;32.10;79.30;;;;;;5002213;28;20211;-67
2022/07/28 07:38:53;;;;;;;4.70;1.65;;;32.60;77.00;;;;;;5009871;28;20180;-66
2022/07/28 07:41:18;;;;;;;3.95;1.80;;;32.50;76.80;;;;;;5010002;28;20179;-68
2022/07/28 07:43:45;;;;;;;3.90;1.38;;;31.90;77.90;;;;;;5009536;28;20646;-66
2022/07/28 07:46:11;;;;;;;3.15;1.73;;;31.90;77.90;;;;;;5010253;28;20288;-68
2022/07/28 07:48:37;;;;;;;6.18;1.60;;;31.80;78.30;;;;;;5009081;28;20311;-66
2022/07/28 07:51:03;;;;;;;7.18;1.55;;;31.30;78.00;;;;;;5009513;28;20205;-66
2022/07/28 07:53:28;;;;;;;4.10;1.80;;;30.40;79.60;;;;;;4992219;28;20192;-66
2022/07/28 07:55:54;;;;;;;4.53;2.05;;;30.20;80.90;;;;;;5009670;28;20205;-66
2022/07/28 07:58:20;;;;;;;3.42;1.73;;;30.40;81.50;;;;;;5009071;28;20209;-68
2022/07/28 08:00:45;;;;;;;5.13;1.73;;;30.50;79.60;;;;;;5009415;28;20295;-67
2022/07/28 08:03:13;;;;;;;2.95;1.45;;;30.20;80.20;;;;;;5009842;28;20292;-66
2022/07/28 08:05:38;;;;;;;3.25;1.52;;;29.90;80.30;;;;;;5009710;28;20219;-66
2022/07/28 08:08:04;;;;;;;5.43;1.70;;;29.70;81.50;;;;;;5009230;28;20608;-66
2022/07/28 08:10:30;;;;;;;5.32;1.80;;;30.30;80.70;;;;;;5009283;28;20842;-68
2022/07/28 08:12:55;;;;;;;3.95;1.45;;;30.30;80.80;;;;;;5009543;28;20208;-65
2022/07/28 08:15:21;;;;;;;6.10;2.80;;;30.10;81.30;;;;;;5009345;28;20216;-66
2022/07/28 08:17:46;;;;;;;2.28;1.52;;;30.20;81.20;;;;;;5009716;28;20216;-66
2022/07/28 08:20:12;;;;;;;4.97;1.50;;;30.10;80.40;;;;;;4995590;28;20243;-66
2022/07/28 08:22:51;;;;;;;3.38;1.73;;;30.10;80.30;;;;;;5012551;28;20201;-66
2022/07/28 08:25:18;;;;;;;3.88;1.30;;;29.40;79.70;;;;;;5013003;28;20283;-66
2022/07/28 08:27:44;;;;;;;4.25;1.65;;;28.80;81.90;;;;;;5012602;28;20219;-65
2022/07/28 08:30:11;;;;;;;4.88;1.55;;;28.60;83.10;;;;;;5012545;28;20225;-65
2022/07/28 08:32:37;;;;;;;4.82;1.95;;;28.80;83.00;;;;;;5012891;28;20254;-66
2022/07/28 08:35:04;;;;;;;7.85;1.70;;;29.20;81.80;;;;;;5012583;28;20655;-66
2022/07/28 08:37:29;;;;;;;4.72;1.90;;;28.70;82.40;;;;;;5012353;28;20267;-66
2022/07/28 08:39:55;;;;;;;4.45;1.77;;;28.70;82.60;;;;;;5012465;28;20220;-65
2022/07/28 08:42:43;;;;;;;5.13;1.60;;;29.10;83.10;;;;;;5012155;28;20705;-65
2022/07/28 08:45:10;;;;;;;5.18;1.60;;;29.70;80.90;;;;;;4992347;28;20220;-66
2022/07/28 08:47:37;;;;;;;4.05;1.50;;;29.60;81.10;;;;;;4995072;28;20219;-67
2022/07/28 08:50:03;;;;;;;4.40;1.60;;;29.20;80.20;;;;;;5011789;28;20710;-67
2022/07/28 08:52:30;;;;;;;5.00;1.85;;;29.20;80.80;;;;;;5009907;28;20288;-67
2022/07/28 08:54:57;;;;;;;5.47;1.50;;;29.10;81.10;;;;;;5012226;28;20227;-66
2022/07/28 08:57:30;;;;;;;4.32;1.63;;;29.40;80.00;;;;;;5012056;28;20220;-67
2022/07/28 08:59:55;;;;;;;4.22;1.67;;;29.30;80.20;;;;;;4994382;28;20180;-66
2022/07/28 09:02:25;;;;;;;4.00;1.73;;;29.50;80.00;;;;;;5012088;28;20193;-67
2022/07/28 09:04:53;;;;;;;3.70;1.48;;;29.00;80.50;;;;;;5012184;28;20212;-66
2022/07/28 09:07:18;;;;;;;6.88;1.75;;;28.80;81.10;;;;;;5011851;28;20698;-67
2022/07/28 09:09:47;;;;;;;2.47;1.27;;;29.10;81.70;;;;;;5004621;28;20220;-66
2022/07/28 09:12:12;;;;;;;3.58;1.48;;;30.10;80.70;;;;;;5012207;28;20231;-67
2022/07/28 09:14:38;;;;;;;8.38;2.10;;;30.20;79.60;;;;;;5012256;28;20264;-67
2022/07/28 09:17:04;;;;;;;3.70;1.58;;;29.60;80.50;;;;;;5011632;28;20228;-67
2022/07/28 09:19:29;;;;;;;5.38;1.95;;;29.50;80.80;;;;;;5011750;28;20201;-66
2022/07/28 09:21:56;;;;;;;4.32;1.58;;;29.10;81.20;;;;;;4994340;28;20228;-67
2022/07/28 09:24:38;;;;;;;3.00;1.25;;;28.80;81.50;;;;;;5011864;28;20252;-67
2022/07/28 09:27:09;;;;;;;4.63;1.70;;;28.70;82.30;;;;;;5013245;28;20236;-68
2022/07/28 09:29:36;;;;;;;4.18;1.52;;;28.70;80.80;;;;;;5002283;28;20212;-67
2022/07/28 09:32:03;;;;;;;4.53;2.22;;;28.70;80.40;;;;;;4994164;28;20302;-67
2022/07/28 09:34:39;;;;;;;4.90;1.50;;;29.00;79.50;;;;;;5011313;28;20227;-67
2022/07/28 09:37:05;;;;;;;5.82;1.92;;;28.80;80.50;;;;;;5011315;28;20215;-66
2022/07/28 09:39:35;;;;;;;3.80;2.03;;;28.80;81.50;;;;;;5001938;28;20212;-68
2022/07/28 09:42:01;;;;;;;6.07;3.65;;;28.80;81.00;;;;;;5011686;28;20177;-67
2022/07/28 09:44:27;;;;;;;4.45;1.40;;;28.50;82.00;;;;;;5011818;28;20176;-66
2022/07/28 09:46:54;;;;;;;6.00;1.55;;;28.50;81.20;;;;;;5011387;28;20343;-66
2022/07/28 09:49:20;;;;;;;7.05;1.50;;;28.70;82.50;;;;;;5010957;28;20217;-66
2022/07/28 09:52:02;;;;;;;4.20;1.40;;;28.00;82.80;;;;;;5010928;28;20216;-67
2022/07/28 09:54:28;;;;;;;2.00;1.20;;;28.20;82.80;;;;;;5008666;28;20299;-67
2022/07/28 09:56:53;;;;;;;4.53;1.55;;;28.30;83.20;;;;;;5011308;28;20228;-66
2022/07/28 10:01:57;;;;;;;3.53;1.50;;;28.30;82.20;;;;;;5054522;22;20232;-73
2022/07/28 10:04:36;;;;;;;3.58;1.90;;;28.00;82.50;;;;;;5030975;28;20203;-75
2022/07/28 10:07:08;;;;;;;4.43;1.65;;;27.80;84.60;;;;;;5028862;28;20207;-74
2022/07/28 10:09:34;;;;;;;3.28;1.60;;;27.60;83.80;;;;;;5029163;28;20311;-74
2022/07/28 10:12:36;;;;;;;3.35;1.42;;;27.60;83.30;;;;;;5003702;28;20185;-74
2022/07/28 10:17:58;;;;;;;4.10;1.52;;;27.50;83.60;;;;;;5011301;28;20212;-76
2022/07/28 10:20:25;;;;;;;5.07;1.42;;;28.00;84.90;;;;;;5000788;28;20229;-75
2022/07/28 10:22:54;;;;;;;3.72;1.58;;;28.00;83.00;;;;;;4991639;28;20204;-75
2022/07/28 10:25:22;;;;;;;3.45;1.70;;;27.50;83.30;;;;;;5004881;28;20247;-76
2022/07/28 10:27:48;;;;;;;4.93;1.58;;;26.50;84.70;;;;;;5003532;28;20209;-75
2022/07/28 10:30:14;;;;;;;3.67;1.42;;;27.00;85.80;;;;;;4988308;28;20724;-76
2022/07/28 10:32:43;;;;;;;4.00;1.77;;;27.20;85.80;;;;;;5007469;28;20273;-75
2022/07/28 10:35:16;;;;;;;8.82;2.08;;;27.60;85.80;;;;;;4994319;28;20236;-75
2022/07/28 10:37:58;;;;;;;3.33;1.55;;;27.70;84.90;;;;;;4992396;28;20258;-74
2022/07/28 10:40:32;;;;;;;3.55;1.70;;;28.20;85.00;;;;;;5005089;28;20207;-75
2022/07/28 10:42:59;;;;;;;7.85;2.13;;;28.00;83.40;;;;;;5006248;28;20196;-76
2022/07/28 10:45:26;;;;;;;3.40;1.48;;;27.70;84.70;;;;;;5000588;28;20232;-75
2022/07/28 10:47:53;;;;;;;3.63;1.52;;;28.00;84.80;;;;;;5009947;28;20622;-76
2022/07/28 10:50:20;;;;;;;6.72;1.80;;;27.50;84.20;;;;;;4988216;28;20204;-75
2022/07/28 10:52:46;;;;;;;5.53;1.40;;;27.60;85.30;;;;;;5004691;28;20201;-75
2022/07/28 10:55:12;;;;;;;2.97;1.15;;;27.50;84.00;;;;;;5003282;28;20212;-75
2022/07/28 10:57:49;;;;;;;3.15;1.40;;;27.70;84.40;;;;;;5007200;28;20209;-75
2022/07/28 11:00:20;;;;;;;4.03;1.42;;;27.60;84.50;;;;;;5003896;28;20227;-75
2022/07/28 11:02:57;;;;;;;5.15;1.52;;;27.40;84.60;;;;;;5003363;28;20638;-75
2022/07/28 11:05:33;;;;;;;4.70;1.48;;;27.40;84.30;;;;;;4987707;28;20176;-75
2022/07/28 11:08:02;;;;;;;5.43;1.63;;;26.90;86.10;;;;;;4993456;28;20207;-75
2022/07/28 11:10:28;;;;;;;5.55;1.50;;;26.40;85.90;;;;;;5000779;28;20701;-74
2022/07/28 11:12:56;;;;;;;3.22;1.20;;;26.90;86.80;;;;;;4988585;28;20304;-75
2022/07/28 11:15:34;;;;;;;3.00;1.20;;;27.20;84.90;;;;;;4988148;28;20209;-73
2022/07/28 11:18:05;;;;;;;4.03;1.40;;;26.90;84.30;;;;;;4984519;28;20182;-74
2022/07/28 11:20:55;;;;;;;9.82;3.67;;;27.30;85.10;;;;;;5002783;28;20189;-74
2022/07/28 11:23:39;;;;;;;5.57;1.88;;;26.80;85.40;;;;;;4987111;28;20198;-74
2022/07/28 11:26:21;;;;;;;3.15;1.60;;;25.90;86.00;;;;;;5003727;28;20682;-75
2022/07/28 11:28:59;;;;;;;2.47;1.08;;;25.70;87.40;;;;;;4992698;28;20299;-75
2022/07/28 11:31:45;;;;;;;4.43;1.27;;;25.70;87.40;;;;;;4987621;28;20197;-74
2022/07/28 11:34:16;;;;;;;5.03;1.73;;;26.30;87.40;;;;;;4985638;28;20244;-75
2022/07/28 11:37:11;;;;;;;4.22;1.67;;;26.50;87.00;;;;;;5003200;28;20211;-75
2022/07/28 11:39:38;;;;;;;4.13;1.65;;;26.30;86.20;;;;;;4989622;28;20543;-74
2022/07/28 11:42:25;;;;;;;3.63;1.90;;;26.00;86.80;;;;;;5006678;28;20205;-75
2022/07/28 11:44:53;;;;;;;4.45;1.40;;;26.40;87.40;;;;;;5003460;28;20176;-75
2022/07/28 11:47:23;;;;;;;4.22;1.50;;;26.70;85.80;;;;;;4982423;28;20178;-75
2022/07/28 11:50:25;;;;;;;3.70;1.45;;;26.90;85.30;;;;;;5004050;28;20232;-75
2022/07/28 11:52:55;;;;;;;6.72;1.77;;;26.90;86.20;;;;;;4949230;28;20198;-75
2022/07/28 11:55:21;;;;;;;4.72;1.50;;;27.10;85.40;;;;;;4981562;28;20290;-74
2022/07/28 11:57:47;;;;;;;7.13;1.50;;;27.40;85.10;;;;;;5011130;28;20239;-75
2022/07/28 12:00:23;;;;;;;6.03;3.75;;;27.40;84.80;;;;;;5007301;28;20737;-75
2022/07/28 12:02:48;;;;;;;2.78;1.60;;;27.30;85.20;;;;;;4996201;28;20247;-76
2022/07/28 12:05:16;;;;;;;4.32;2.00;;;27.30;83.10;;;;;;5007631;28;20304;-75
2022/07/28 12:07:50;;;;;;;5.15;1.42;;;26.90;83.80;;;;;;4995386;28;20205;-75
2022/07/28 12:10:23;;;;;;;3.42;1.48;;;27.00;84.60;;;;;;5008968;28;20212;-76
2022/07/28 12:12:53;;;;;;;3.65;1.80;;;27.30;84.20;;;;;;5009033;28;20359;-76
2022/07/28 12:15:19;;;;;;;3.70;1.70;;;27.40;83.30;;;;;;4991992;28;20208;-75
2022/07/28 12:17:46;;;;;;;4.82;1.95;;;26.90;84.60;;;;;;4995303;28;20181;-75
2022/07/28 12:20:15;;;;;;;3.53;1.70;;;26.90;86.20;;;;;;5003825;28;20204;-75
2022/07/28 12:22:54;;;;;;;3.63;1.60;;;27.00;86.00;;;;;;5010884;28;20639;-75
2022/07/28 12:25:19;;;;;;;3.33;1.67;;;26.90;85.50;;;;;;5007102;28;20205;-75
2022/07/28 12:27:45;;;;;;;2.85;1.60;;;26.70;85.50;;;;;;5006630;28;20201;-75
2022/07/28 12:30:11;;;;;;;4.57;1.83;;;26.30;85.20;;;;;;5008606;28;20217;-75
2022/07/28 12:32:37;;;;;;;5.18;1.50;;;25.90;86.30;;;;;;4994851;28;20173;-75
2022/07/28 12:35:03;;;;;;;3.13;1.52;;;25.80;87.10;;;;;;5007545;28;20251;-75
2022/07/28 12:37:29;;;;;;;4.63;1.60;;;25.70;87.10;;;;;;5003185;28;20237;-75
2022/07/28 12:39:55;;;;;;;4.63;1.50;;;25.50;86.50;;;;;;4995028;28;20208;-75
2022/07/28 12:42:20;;;;;;;3.65;1.33;;;25.40;87.30;;;;;;5007041;28;20213;-75
2022/07/28 12:44:47;;;;;;;5.88;1.58;;;25.40;87.50;;;;;;5006833;28;20673;-76
2022/07/28 12:47:23;;;;;;;4.32;1.70;;;25.00;88.00;;;;;;4991695;28;20661;-75
2022/07/28 12:50:14;;;;;;;2.97;1.63;;;24.70;88.30;;;;;;5006893;28;20659;-76
2022/07/28 12:53:00;;;;;;;2.92;1.77;;;24.60;89.00;;;;;;4988559;28;20214;-75
2022/07/28 12:55:26;;;;;;;5.25;1.80;;;24.40;89.00;;;;;;4991931;28;20243;-75
2022/07/28 12:57:52;;;;;;;3.65;1.50;;;24.50;89.60;;;;;;5010083;28;20232;-74
2022/07/28 13:00:31;;;;;;;5.15;1.33;;;24.70;89.50;;;;;;5005771;28;20216;-75
2022/07/28 13:02:59;;;;;;;4.68;1.50;;;24.50;89.00;;;;;;4990599;28;20165;-75